Participated 2 times
Between 2024 and 2025
Gianni Vermeersch, Belgium
Tour de France 2026 starts from Barcelona, Spain in

Stats and Facts from
Tour de France.

2026   2025   2024   2023  2022  2021  2020  2019   2018  2017   2016   2015  2014  2013   2012   2011  2010   2009   2008   2007   2006   2005   2004   2003   2002   2001   2000   1999   1998   1997  1996   1995   1994   1993   1992  1991   1990   1989   1988   1987   1986   1985   1984   1983  1982  1981   1980   1979  1978  1977   1976  1975  1974  1973   1972   1971   1970  1969   1968   1967   1966   1965  1964  1963   1962   1961   1960   1959   1958   1957  1956   1955   1954   1953   1952  1951  1950  1949   1948  1947  1939   1938   1937   1936   1935   1934   1933  1932   1931   1930  1929   1928   1927   1926  1925  1924  1923   1922   1921   1920   1919  1914   1913   1912   1911   1910  1909   1908   1907   1906  1905  1904   1903 

Tourstats
Sitemap

After stage 21 - 2025:
 16451 starters.
  5464 different riders.
  689 teams.
  2398 stages.
  470 restdays.
  466506.50 km.
  5925 abandoned riders.

Click map for 1959 route.
Facts from Tour de France 1959
  |   Stages.  |   Stage winners.  |   Days in jerseys.  |   Teams.  |   All riders.  |   All riders by age.  |   All riders from.  |  

  |   Rookies.  |   Withdrawls.  |   Average speed.  |   GC.  |   Polka  |   Green  |   White  |   Summits. (In tour)  |   Miscellaneous.  |  

Stage 2 on June 26th. 1959
Pick a stage:  1  2  3  4  5  6  7  8  9  10  11  12  13  14  15  16  17  18  19  20  21  22  

After stage 2:    André Darrigade  
  MetzNamur | Dist: 240.00km. | Winner: Vito Favero

Podium

Average speed for all riders in stage:  37,123 km./hr.

1
 Vito Favero  Italy06h 25' 02"=37,399  km/h

2
 Jean Gainche  Ouest-Sud Ouest06h 25' 02"=37,399  km/h

3
 Michel Dejouhannet  Centre-Midi06h 25' 02"=37,399  km/h

4  Roger Rivière  France06h 25' 02"=37,399  km/h

5  Martin Van Geneugden  Belgium06h 25' 02"=37,399  km/h

6  Brian Robinson  Internations06h 25' 02"=37,399  km/h

7  Jacques Anquetil  France06h 25' 02"=37,399  km/h

8  Ercole Baldini  Italy06h 25' 02"=37,399  km/h

9  Federico Bahamontes  Spain06h 25' 02"=37,399  km/h

10  Seamus Elliott  Internations06h 25' 02"=37,399  km/h

11  Frans Reitz  Switzerland-Germany06h 25' 02"=37,399  km/h

12  Joseph Thomin  Ouest-Sud Ouest06h 25' 02"=37,399  km/h

13  Louison Bobet  France06h 25' 02"=37,399  km/h

14  Charly Gaul  Holland-Luxembourg06h 25' 02"=37,399  km/h

15  Marcel Ernzer  Holland-Luxembourg06h 25' 02"=37,399  km/h

16  René Pavard  Paris-Nord Est06h 25' 02"=37,399  km/h

17  François Mahé  Ouest-Sud Ouest06h 25' 02"=37,399  km/h

18  Michel Vermeulin  Paris-Nord Est06h 25' 02"=37,399  km/h

19  Antonio Suarez  Spain06h 25' 02"=37,399  km/h

20  André Darrigade  France06h 25' 15"+  00:00:13 =37,378  km/h

21  Jean Graczyk  France06h 25' 16"+  00:00:14 =37,377  km/h

22  Jean Robic  Paris-Nord Est06h 25' 16"+  00:00:14 =37,377  km/h

23  Daniël de Groot  Holland-Luxembourg06h 25' 16"+  00:00:14 =37,377  km/h

24  Nello Fabbri  Italy06h 25' 16"+  00:00:14 =37,377  km/h

25  Max Schellenberg  Switzerland-Germany06h 25' 16"+  00:00:14 =37,377  km/h

26  Fernand Picot  Ouest-Sud Ouest06h 25' 16"+  00:00:14 =37,377  km/h

27  Bernard Gauthier  Centre-Midi06h 25' 16"+  00:00:14 =37,377  km/h

28  Juan Campillo  Spain06h 25' 21"+  00:00:19 =37,369  km/h

29  Marcel Rohrbach  Centre-Midi06h 25' 21"+  00:00:19 =37,369  km/h

30  Gerard Saint  Ouest-Sud Ouest06h 25' 21"+  00:00:19 =37,369  km/h

31  Lothar Friedrich  Switzerland-Germany06h 25' 21"+  00:00:19 =37,369  km/h

32  Settimo Sabbadini  Ouest-Sud Ouest06h 25' 21"+  00:00:19 =37,369  km/h

33  Aldo Bolzan  Holland-Luxembourg06h 25' 21"+  00:00:19 =37,369  km/h

34  Michele Gismondi  Italy06h 25' 21"+  00:00:19 =37,369  km/h

35  Guillaume Van Tongerloo  Belgium06h 25' 21"+  00:00:19 =37,369  km/h

36  Michel Van Aerde  Belgium06h 25' 21"+  00:00:19 =37,369  km/h

37  Piet Damen  Holland-Luxembourg06h 25' 21"+  00:00:19 =37,369  km/h

38  Jean Forestier  Centre-Midi06h 25' 21"+  00:00:19 =37,369  km/h

39  Julio San Emeterio  Spain06h 25' 21"+  00:00:19 =37,369  km/h

40  Waldemaro Bartolozzi  Italy06h 25' 21"+  00:00:19 =37,369  km/h

41  Armand Desmet  Belgium06h 25' 21"+  00:00:19 =37,369  km/h

42  Carmelo Morales  Spain06h 25' 21"+  00:00:19 =37,369  km/h

43  Henri Anglade  Centre-Midi06h 25' 21"+  00:00:19 =37,369  km/h

44  Joseph Groussard  Ouest-Sud Ouest06h 25' 21"+  00:00:19 =37,369  km/h

45  Raymond Mastrotto  France06h 25' 21"+  00:00:19 =37,369  km/h

46  Joseph Planckaert  Belgium06h 25' 21"+  00:00:19 =37,369  km/h

47  Fred De Bruyne  Belgium06h 25' 21"+  00:00:19 =37,369  km/h

48  Jan Adriaensens  Belgium06h 25' 21"+  00:00:19 =37,369  km/h

49  Félix Le Buhotel  Ouest-Sud Ouest06h 25' 21"+  00:00:19 =37,369  km/h

50  Louis Bergaud  Centre-Midi06h 25' 21"+  00:00:19 =37,369  km/h

51  Marcel Janssens  Belgium06h 25' 21"+  00:00:19 =37,369  km/h

52  Rolf Graf  Switzerland-Germany06h 25' 21"+  00:00:19 =37,369  km/h

53  Piet van Est  Holland-Luxembourg06h 25' 21"+  00:00:19 =37,369  km/h

54  José-Sousa Cardoso  Internations06h 25' 21"+  00:00:19 =37,369  km/h

55  Raphaël Geminiani  France06h 25' 21"+  00:00:19 =37,369  km/h

56  Victor Sutton  Internations06h 25' 21"+  00:00:19 =37,369  km/h

57  Jean Anastasi  Centre-Midi06h 25' 35"+  00:00:33 =37,346  km/h

58  Eddy Pauwels  Belgium06h 25' 35"+  00:00:33 =37,346  km/h

59  Jesús Galdeano  Spain06h 25' 35"+  00:00:33 =37,346  km/h

60  Stéphane Lach  Paris-Nord Est06h 25' 35"+  00:00:33 =37,346  km/h

61  Jean-Baptiste Dotto  Centre-Midi06h 25' 35"+  00:00:33 =37,346  km/h

62  Pierre Everaert  France06h 25' 35"+  00:00:33 =37,346  km/h

63  Roberto Falaschi  Italy06h 25' 35"+  00:00:33 =37,346  km/h

64  Kamiel Buysse  Belgium06h 25' 35"+  00:00:33 =37,346  km/h

65  Luis Otaño  Spain06h 25' 35"+  00:00:33 =37,346  km/h

66  Robert Cazala  France06h 25' 35"+  00:00:33 =37,346  km/h

67  Fernando Manzaneque  Spain06h 25' 35"+  00:00:33 =37,346  km/h

68  Richard Durlacher  Internations06h 25' 35"+  00:00:33 =37,346  km/h

69  Orphée Meneghini  Paris-Nord Est06h 25' 35"+  00:00:33 =37,346  km/h

70  Raymond Hoorelbeke  Paris-Nord Est06h 25' 35"+  00:00:33 =37,346  km/h

71  José Herrero  Spain06h 25' 35"+  00:00:33 =37,346  km/h

72  Aniceto Utset  Spain06h 25' 35"+  00:00:33 =37,346  km/h

73  Martin van der Borgh  Holland-Luxembourg06h 25' 35"+  00:00:33 =37,346  km/h

74  André Le Dissez  Paris-Nord Est06h 25' 35"+  00:00:33 =37,346  km/h

75  Edouard Delberghe  Paris-Nord Est06h 25' 35"+  00:00:33 =37,346  km/h

76  Pierino Baffi  Italy06h 25' 35"+  00:00:33 =37,346  km/h

77  Aurelio Cestari  Italy06h 25' 35"+  00:00:33 =37,346  km/h

78  José Gomez del Moral  Spain06h 25' 35"+  00:00:33 =37,346  km/h

79  Piet de Jongh  Holland-Luxembourg06h 25' 35"+  00:00:33 =37,346  km/h

80  Francis Pipelin  Ouest-Sud Ouest06h 25' 35"+  00:00:33 =37,346  km/h

81  René Marigil  Spain06h 25' 35"+  00:00:33 =37,346  km/h

82  Jean-Claude Annaert  Paris-Nord Est06h 25' 35"+  00:00:33 =37,346  km/h

83  Roger Hassenforder  France06h 25' 48"+  00:00:46 =37,325  km/h

84  Bram Kool  Holland-Luxembourg06h 25' 48"+  00:00:46 =37,325  km/h

85  Jean-Claude Lefebvre  Paris-Nord Est06h 25' 48"+  00:00:46 =37,325  km/h

86  Arrigo Padovan  Italy06h 25' 48"+  00:00:46 =37,325  km/h

87  Jean Stablinski  France06h 25' 48"+  00:00:46 =37,325  km/h

88  Giuseppe Fallarini  Italy06h 25' 48"+  00:00:46 =37,325  km/h

89  René Privat  France06h 25' 48"+  00:00:46 =37,325  km/h

90  Jaap Kersten  Holland-Luxembourg06h 25' 48"+  00:00:46 =37,325  km/h

91  Max Bleneau  Ouest-Sud Ouest06h 25' 48"+  00:00:46 =37,325  km/h

92  Ernst Traxel  Switzerland-Germany06h 26' 04"+  00:01:02 =37,299  km/h

93  Jean Brankart  Belgium06h 26' 11"+  00:01:09 =37,288  km/h

94  Marcel Queheille  Ouest-Sud Ouest06h 26' 13"+  00:01:11 =37,285  km/h

95  Jean Hoffmann  Paris-Nord Est06h 26' 17"+  00:01:15 =37,278  km/h

96  Ernesto Bono  Italy06h 26' 17"+  00:01:15 =37,278  km/h

97  Gerrit Voorting  Holland-Luxembourg06h 26' 17"+  00:01:15 =37,278  km/h

98  Tadeusz Wierucki  Internations06h 26' 25"+  00:01:23 =37,265  km/h

99  Louis Rostollan  Centre-Midi06h 26' 25"+  00:01:23 =37,265  km/h

100  Jos Hoevenaers  Belgium06h 26' 25"+  00:01:23 =37,265  km/h

101  Albert Bouvet  Ouest-Sud Ouest06h 26' 25"+  00:01:23 =37,265  km/h

102  Adolf Christian  Internations06h 26' 25"+  00:01:23 =37,265  km/h

103  Jacques Champion  Paris-Nord Est06h 36' 38"+  00:11:36 =36,306  km/h

104  Jean-Pierre Schmitz  Holland-Luxembourg06h 36' 38"+  00:11:36 =36,306  km/h

105  Antonio Baptista  Internations06h 36' 47"+  00:11:45 =36,292  km/h

106  Tony Hewson  Internations06h 36' 52"+  00:11:50 =36,284  km/h

107  Arne Kjeld Jonsson  Internations06h 37' 03"+  00:12:01 =36,267  km/h

108  Emmanuel Plattner  Switzerland-Germany06h 38' 03"+  00:13:01 =36,176  km/h

109  Manuel Busto  Centre-Midi06h 43' 07"+  00:18:05 =35,722  km/h

110  Dino Bruni  Italy06h 43' 11"+  00:18:09 =35,716  km/h

111  Valentin Huot  Centre-Midi06h 43' 11"+  00:18:09 =35,716  km/h

112  Wilfried Ommer  Switzerland-Germany06h 43' 13"+  00:18:11 =35,713  km/h

113  Otto Altweck  Switzerland-Germany06h 43' 23"+  00:18:21 =35,698  km/h

114  Mathias Löder  Switzerland-Germany06h 43' 33"+  00:18:31 =35,683  km/h

115  Attilio Moresi  Switzerland-Germany06h 44' 07"+  00:19:05 =35,633  km/h

116  Louis Bisilliat  Centre-Midi06h 44' 10"+  00:19:08 =35,629  km/h

117  Bent Ole Retvig  Internations06h 44' 12"+  00:19:10 =35,626  km/h

118  John Andrews  Internations06h 44' 29"+  00:19:27 =35,601  km/h

119  Hans Hollenstein  Switzerland-Germany06h 44' 56"+  00:19:54 =35,561  km/h

120  Ernest Ecuyer  Switzerland-Germany06h 44' 58"+  00:19:56 =35,558  km/h


Todays birthdays.

1889 • Adolphe Landon
1890 • Jules Lebreton
1904 • Julien Grujon
1909 • Erich Metze
1926 • Giovanni Rossi
1928 • Serge Blusson
1928 • Alois Vansteenkiste
1931 • André Dupré
1934 • Alfred Rüegg
1962 • Francisco Espinosa
1962 • Paul Kimmage
1963 • Federico Muñoz
1966 • Andrea Tafi
1971 • Emmanuel Magnien
1973 • Paolo Savoldelli
1985 • Mikhail Ignatyev

 

Optimized for Chrome - Edge
and Opera browsers.